createdAt,value
2019-04-29T00:01:18.416Z,11.38
2019-04-29T00:03:56.931Z,11.41
2019-04-29T00:06:35.173Z,11.46
2019-04-29T00:09:20.063Z,11.46
2019-04-29T00:11:57.687Z,11.46
2019-04-29T00:14:35.157Z,11.45
2019-04-29T00:17:29.761Z,11.50
2019-04-29T00:20:24.255Z,11.50
2019-04-29T00:23:10.450Z,11.49
2019-04-29T00:26:01.926Z,11.47
2019-04-29T00:28:54.039Z,11.46
2019-04-29T00:31:55.286Z,11.47
2019-04-29T00:34:38.266Z,11.44
2019-04-29T00:37:34.633Z,11.45
2019-04-29T00:40:38.236Z,11.43
2019-04-29T00:43:32.038Z,11.40
2019-04-29T00:46:11.651Z,11.37
2019-04-29T00:48:52.402Z,11.38
2019-04-29T00:51:31.810Z,11.39
2019-04-29T00:54:25.494Z,11.38
2019-04-29T00:57:06.945Z,11.37
2019-04-29T00:59:47.507Z,11.36
2019-04-29T01:02:27.814Z,11.36
2019-04-29T01:05:08.183Z,11.37
2019-04-29T01:07:47.536Z,11.38
2019-04-29T01:10:27.023Z,11.37
2019-04-29T01:13:07.134Z,11.38
2019-04-29T01:15:48.399Z,11.36
2019-04-29T01:18:27.201Z,11.36
2019-04-29T01:21:07.224Z,11.34
2019-04-29T01:23:47.187Z,11.34
2019-04-29T01:26:40.098Z,11.33
2019-04-29T01:29:14.747Z,11.33
2019-04-29T01:31:51.795Z,11.33
2019-04-29T01:34:42.027Z,11.33
2019-04-29T01:37:19.348Z,11.34
2019-04-29T01:40:17.179Z,11.36
2019-04-29T01:42:55.434Z,11.38
2019-04-29T01:45:34.170Z,11.39
2019-04-29T01:48:14.767Z,11.42
2019-04-29T01:50:52.892Z,11.42
2019-04-29T01:53:31.159Z,11.41
2019-04-29T01:56:12.021Z,11.42
2019-04-29T01:58:50.349Z,11.45
2019-04-29T02:01:28.412Z,11.46
2019-04-29T02:04:05.981Z,11.46
2019-04-29T02:06:43.911Z,11.46
2019-04-29T02:09:29.916Z,11.46
2019-04-29T02:12:09.168Z,11.46
2019-04-29T02:14:46.595Z,11.47
2019-04-29T02:17:24.347Z,11.48
2019-04-29T02:20:00.725Z,11.48
2019-04-29T02:22:55.074Z,11.48
2019-04-29T02:25:34.786Z,11.49
2019-04-29T02:28:11.209Z,11.47
2019-04-29T02:30:48.940Z,11.46
2019-04-29T02:33:26.539Z,11.46
2019-04-29T02:36:01.270Z,11.48
2019-04-29T02:38:44.623Z,11.47
2019-04-29T02:41:34.084Z,11.47
2019-04-29T02:44:12.457Z,11.48
2019-04-29T02:46:46.352Z,11.50
2019-04-29T02:49:25.770Z,11.52
2019-04-29T02:52:03.352Z,11.54
2019-04-29T02:54:40.126Z,11.55
2019-04-29T02:57:36.676Z,11.56
2019-04-29T03:00:33.060Z,11.55
2019-04-29T03:03:19.598Z,11.52
2019-04-29T03:06:03.686Z,11.53
2019-04-29T03:08:45.116Z,11.55
2019-04-29T03:11:25.857Z,11.55
2019-04-29T03:14:03.208Z,11.54
2019-04-29T03:16:36.117Z,11.53
2019-04-29T03:19:12.805Z,11.53
2019-04-29T03:21:49.154Z,11.58
2019-04-29T03:24:21.641Z,11.57
2019-04-29T03:26:54.626Z,11.59
2019-04-29T03:29:26.826Z,11.62
2019-04-29T03:31:58.890Z,11.65
2019-04-29T03:34:31.002Z,11.70
2019-04-29T03:37:02.016Z,11.67
2019-04-29T03:39:34.138Z,11.68
2019-04-29T03:42:07.365Z,11.67
2019-04-29T03:44:37.880Z,11.69
2019-04-29T03:47:09.876Z,11.68
2019-04-29T03:49:42.438Z,11.68
2019-04-29T03:52:13.648Z,11.72
2019-04-29T03:54:46.021Z,11.77
2019-04-29T03:57:19.246Z,11.75
2019-04-29T03:59:51.665Z,11.75
2019-04-29T04:02:33.390Z,11.78
2019-04-29T04:05:16.979Z,11.82
2019-04-29T04:07:53.187Z,11.85
2019-04-29T04:10:25.578Z,11.86
2019-04-29T04:12:58.366Z,11.86
2019-04-29T04:15:32.055Z,11.87
2019-04-29T04:18:23.068Z,11.90
2019-04-29T04:20:55.247Z,11.93
2019-04-29T04:23:26.364Z,11.93
2019-04-29T04:25:58.518Z,11.93
2019-04-29T04:28:30.548Z,11.91
2019-04-29T04:31:06.233Z,11.95
2019-04-29T04:33:34.685Z,11.97
2019-04-29T04:36:06.919Z,11.96
2019-04-29T04:38:39.352Z,11.96
2019-04-29T04:41:11.946Z,11.98
2019-04-29T04:43:44.153Z,11.98
2019-04-29T04:46:16.147Z,12.01
2019-04-29T04:48:48.462Z,12.01
2019-04-29T04:51:20.938Z,12.04
2019-04-29T04:53:51.855Z,12.09
2019-04-29T04:56:23.736Z,12.11
2019-04-29T04:58:55.696Z,12.11
2019-04-29T05:01:26.960Z,12.13
2019-04-29T05:03:58.828Z,12.15
2019-04-29T05:06:30.836Z,12.14
2019-04-29T05:09:04.526Z,12.18
2019-04-29T05:11:36.706Z,12.20
2019-04-29T05:14:08.806Z,12.25
2019-04-29T05:16:41.046Z,12.25
2019-04-29T05:19:13.318Z,12.25
2019-04-29T05:21:45.237Z,12.31
2019-04-29T05:24:18.099Z,12.36
2019-04-29T05:26:50.166Z,12.37
2019-04-29T05:29:22.248Z,12.41
2019-04-29T05:32:16.350Z,12.42
2019-04-29T05:34:50.276Z,12.45
2019-04-29T05:37:56.927Z,12.47
2019-04-29T05:40:38.498Z,12.51
2019-04-29T05:43:12.936Z,12.57
2019-04-29T05:45:54.618Z,12.55
2019-04-29T05:48:27.587Z,12.54
2019-04-29T05:51:27.258Z,12.56
2019-04-29T05:54:00.196Z,12.56
2019-04-29T05:56:32.341Z,12.55
2019-04-29T05:59:04.418Z,12.60
2019-04-29T06:01:35.404Z,12.62
2019-04-29T06:04:07.226Z,12.65
2019-04-29T06:06:38.234Z,12.66
2019-04-29T06:09:11.582Z,12.69
2019-04-29T06:11:44.115Z,12.69
2019-04-29T06:14:16.307Z,12.72
2019-04-29T06:16:47.204Z,12.76
2019-04-29T06:19:19.076Z,12.81
2019-04-29T06:21:51.006Z,12.79
2019-04-29T06:24:24.046Z,12.84
2019-04-29T06:26:56.146Z,12.91
2019-04-29T06:29:27.157Z,12.94
2019-04-29T06:31:58.946Z,12.96
2019-04-29T06:34:31.388Z,12.97
2019-04-29T06:37:03.397Z,13.00
2019-04-29T06:39:36.912Z,13.01
2019-04-29T06:42:09.116Z,13.04
2019-04-29T06:44:44.352Z,13.05
2019-04-29T06:47:16.961Z,13.08
2019-04-29T06:49:48.867Z,13.11
2019-04-29T06:52:19.824Z,13.13
2019-04-29T06:54:51.655Z,13.17
2019-04-29T06:57:23.717Z,13.17
2019-04-29T06:59:55.839Z,13.22
2019-04-29T07:02:26.806Z,13.26
2019-04-29T07:04:58.570Z,13.32
2019-04-29T07:07:30.628Z,13.32
2019-04-29T07:10:02.647Z,13.38
2019-04-29T07:12:34.654Z,13.42
2019-04-29T07:15:07.619Z,13.44
2019-04-29T07:17:41.361Z,13.45
2019-04-29T07:20:14.527Z,13.42
2019-04-29T07:22:46.396Z,13.43
2019-04-29T07:25:18.429Z,13.47
2019-04-29T07:27:49.425Z,13.52
2019-04-29T07:30:21.340Z,13.51
2019-04-29T07:32:53.366Z,13.51
2019-04-29T07:35:25.343Z,13.47
2019-04-29T07:37:57.261Z,13.49
2019-04-29T07:40:29.329Z,13.52
2019-04-29T07:43:02.831Z,13.56
2019-04-29T07:45:45.386Z,13.59
2019-04-29T07:48:17.417Z,13.58
2019-04-29T07:50:49.526Z,13.61
2019-04-29T07:53:21.831Z,13.66
2019-04-29T07:55:53.937Z,13.71
2019-04-29T07:58:27.319Z,13.75
2019-04-29T08:00:59.853Z,13.84
2019-04-29T08:03:31.015Z,13.88
2019-04-29T08:06:03.140Z,13.90
2019-04-29T08:08:35.665Z,13.90
2019-04-29T08:11:07.726Z,14.01
2019-04-29T08:13:39.805Z,14.07
2019-04-29T08:16:12.609Z,14.09
2019-04-29T08:18:49.485Z,14.09
2019-04-29T08:21:19.387Z,14.11
2019-04-29T08:23:50.465Z,14.08
2019-04-29T08:26:22.165Z,14.10
2019-04-29T08:29:00.346Z,14.16
2019-04-29T08:31:27.834Z,14.20
2019-04-29T08:33:59.886Z,14.20
2019-04-29T08:36:32.034Z,14.29
2019-04-29T08:39:08.788Z,14.30
2019-04-29T08:41:40.146Z,14.30
2019-04-29T08:44:39.176Z,14.31
2019-04-29T08:47:23.619Z,14.35
2019-04-29T08:49:52.644Z,14.39
2019-04-29T08:52:24.416Z,14.43
2019-04-29T08:54:57.393Z,14.43
2019-04-29T08:57:31.926Z,14.48
2019-04-29T09:00:03.688Z,14.53
2019-04-29T09:02:35.909Z,14.63
2019-04-29T09:05:11.414Z,14.72
2019-04-29T09:07:43.376Z,14.84
2019-04-29T09:10:15.666Z,14.92
2019-04-29T09:12:47.745Z,15.05
2019-04-29T09:15:19.993Z,15.13
2019-04-29T09:17:52.314Z,15.22
2019-04-29T09:20:24.356Z,15.32
2019-04-29T09:23:00.791Z,15.40
2019-04-29T09:26:02.006Z,15.49
2019-04-29T09:28:28.484Z,15.51
2019-04-29T09:30:57.545Z,15.58
2019-04-29T09:33:29.686Z,15.79
2019-04-29T09:36:01.707Z,16.08
2019-04-29T09:38:36.958Z,16.28
2019-04-29T09:41:17.886Z,16.45
2019-04-29T09:44:11.866Z,16.55
2019-04-29T09:46:44.204Z,16.76
2019-04-29T09:49:15.145Z,16.99
2019-04-29T09:51:46.926Z,17.26
2019-04-29T09:54:18.947Z,17.41
2019-04-29T09:56:50.896Z,17.55
2019-04-29T09:59:26.826Z,17.67
2019-04-29T10:02:16.506Z,17.65
2019-04-29T10:04:57.010Z,17.69
2019-04-29T10:07:29.867Z,18.01
2019-04-29T10:10:06.590Z,18.64
2019-04-29T10:12:36.036Z,19.06
2019-04-29T10:15:09.888Z,19.22
2019-04-29T10:18:03.730Z,19.23
2019-04-29T10:20:42.576Z,19.15
2019-04-29T10:23:14.678Z,19.11
2019-04-29T10:25:46.827Z,19.19
2019-04-29T10:28:19.626Z,19.55
2019-04-29T10:30:50.829Z,19.66
2019-04-29T10:33:23.186Z,19.52
2019-04-29T10:35:55.206Z,19.58
2019-04-29T10:38:26.465Z,19.78
2019-04-29T10:41:10.111Z,20.38
2019-04-29T10:44:04.026Z,20.69
2019-04-29T10:46:58.796Z,20.61
2019-04-29T10:49:51.457Z,20.51
2019-04-29T10:52:23.814Z,20.26
2019-04-29T10:54:56.754Z,20.07
2019-04-29T10:57:29.452Z,19.99
2019-04-29T11:00:11.033Z,20.44
2019-04-29T11:02:44.690Z,20.54
2019-04-29T11:05:36.706Z,20.53
2019-04-29T11:08:27.546Z,20.14
2019-04-29T11:11:02.347Z,20.18
2019-04-29T11:13:33.606Z,19.87
2019-04-29T11:16:04.755Z,19.57
2019-04-29T11:18:36.767Z,19.19
2019-04-29T11:21:09.118Z,19.04
2019-04-29T11:24:00.027Z,19.59
2019-04-29T11:26:48.727Z,20.25
2019-04-29T11:29:22.116Z,20.88
2019-04-29T11:31:56.090Z,21.47
2019-04-29T11:34:48.394Z,21.61
2019-04-29T11:37:23.958Z,21.98
2019-04-29T11:39:57.159Z,21.66
2019-04-29T11:42:31.861Z,21.34
2019-04-29T11:45:06.427Z,21.01
2019-04-29T11:47:38.488Z,21.03
2019-04-29T11:50:34.575Z,21.08
2019-04-29T11:53:07.595Z,21.03
2019-04-29T11:55:42.426Z,20.77
2019-04-29T11:58:29.727Z,20.92
2019-04-29T12:01:38.394Z,21.68
2019-04-29T12:04:08.510Z,21.86
2019-04-29T12:06:40.586Z,21.45
2019-04-29T12:09:11.935Z,20.94
2019-04-29T12:11:44.856Z,20.42
2019-04-29T12:14:26.188Z,20.30
2019-04-29T12:17:12.207Z,20.08
2019-04-29T12:19:44.917Z,19.98
2019-04-29T12:22:28.263Z,20.10
2019-04-29T12:24:51.046Z,20.09
2019-04-29T12:27:23.406Z,20.02
2019-04-29T12:29:59.222Z,20.00
2019-04-29T12:32:43.616Z,20.09
2019-04-29T12:35:24.876Z,20.12
2019-04-29T12:38:14.696Z,20.19
2019-04-29T12:40:58.706Z,20.02
2019-04-29T12:43:59.145Z,19.90
2019-04-29T12:46:41.039Z,19.88
2019-04-29T12:49:13.932Z,19.96
2019-04-29T12:51:46.210Z,19.96
2019-04-29T12:54:17.266Z,20.02
2019-04-29T12:56:49.518Z,20.37
2019-04-29T12:59:22.050Z,20.62
2019-04-29T13:02:14.049Z,20.88
2019-04-29T13:05:13.047Z,20.98
2019-04-29T13:08:02.316Z,21.02
2019-04-29T13:10:44.236Z,20.69
2019-04-29T13:13:20.015Z,20.38
2019-04-29T13:16:19.998Z,20.29
2019-04-29T13:19:14.489Z,20.34
2019-04-29T13:21:44.054Z,20.76
2019-04-29T13:24:23.485Z,21.53
2019-04-29T13:26:47.651Z,21.52
2019-04-29T13:29:26.789Z,21.32
2019-04-29T13:31:53.122Z,20.68
2019-04-29T13:34:33.621Z,20.39
2019-04-29T13:37:08.051Z,20.08
2019-04-29T13:39:40.891Z,19.87
2019-04-29T13:42:15.915Z,19.79
2019-04-29T13:45:04.991Z,19.87
2019-04-29T13:47:39.647Z,20.34
2019-04-29T13:50:31.322Z,20.50
2019-04-29T13:52:52.126Z,20.55
2019-04-29T13:55:47.210Z,21.01
2019-04-29T13:57:59.047Z,21.48
2019-04-29T14:00:55.735Z,21.41
2019-04-29T14:03:32.146Z,21.07
2019-04-29T14:06:04.966Z,20.60
2019-04-29T14:08:37.047Z,20.44
2019-04-29T14:11:09.006Z,20.17
2019-04-29T14:13:43.180Z,19.99
2019-04-29T14:16:13.716Z,19.75
2019-04-29T14:18:48.216Z,19.64
2019-04-29T14:21:19.686Z,19.50
2019-04-29T14:23:51.667Z,19.22
2019-04-29T14:26:23.656Z,18.96
2019-04-29T14:28:55.709Z,18.79
2019-04-29T14:31:30.014Z,18.69
2019-04-29T14:34:05.347Z,18.35
2019-04-29T14:36:37.386Z,18.20
2019-04-29T14:39:13.010Z,18.07
2019-04-29T14:41:50.998Z,17.98
2019-04-29T14:44:36.737Z,18.04
2019-04-29T14:47:15.627Z,18.12
2019-04-29T14:49:54.923Z,18.14
2019-04-29T14:52:25.106Z,18.05
2019-04-29T14:54:57.129Z,17.96
2019-04-29T14:57:29.349Z,18.04
2019-04-29T15:00:01.649Z,18.12
2019-04-29T15:02:35.442Z,18.33
2019-04-29T15:05:07.307Z,18.52
2019-04-29T15:07:39.003Z,18.58
2019-04-29T15:10:11.278Z,18.43
2019-04-29T15:12:52.265Z,18.79
2019-04-29T15:16:03.890Z,19.42
2019-04-29T15:18:50.139Z,19.39
2019-04-29T15:21:42.914Z,19.13
2019-04-29T15:24:10.286Z,18.82
2019-04-29T15:26:41.225Z,18.69
2019-04-29T15:29:13.190Z,18.92
2019-04-29T15:31:47.039Z,19.01
2019-04-29T15:34:18.606Z,18.76
2019-04-29T15:36:50.646Z,18.29
2019-04-29T15:39:25.258Z,18.29
2019-04-29T15:41:56.374Z,18.21
2019-04-29T15:44:28.498Z,18.02
2019-04-29T15:47:00.578Z,17.91
2019-04-29T15:49:32.527Z,17.73
2019-04-29T15:52:03.925Z,17.58
2019-04-29T15:54:35.791Z,17.47
2019-04-29T15:57:09.823Z,17.49
2019-04-29T15:59:49.192Z,17.50
2019-04-29T16:02:15.426Z,17.44
2019-04-29T16:04:53.839Z,17.36
2019-04-29T16:07:46.747Z,17.31
2019-04-29T16:10:58.012Z,17.26
2019-04-29T16:13:29.460Z,17.18
2019-04-29T16:16:01.737Z,17.05
2019-04-29T16:18:33.925Z,16.97
2019-04-29T16:21:04.806Z,16.91
2019-04-29T16:23:38.585Z,16.82
2019-04-29T16:26:10.547Z,16.85
2019-04-29T16:28:42.936Z,16.88
2019-04-29T16:31:15.051Z,16.83
2019-04-29T16:33:47.308Z,16.74
2019-04-29T16:36:20.186Z,16.67
2019-04-29T16:38:51.653Z,16.58
2019-04-29T16:41:38.786Z,16.39
2019-04-29T16:44:34.068Z,16.24
2019-04-29T16:46:45.276Z,16.15
2019-04-29T16:49:16.285Z,16.05
2019-04-29T16:51:53.622Z,15.83
2019-04-29T16:54:28.258Z,15.74
2019-04-29T16:56:56.126Z,15.56
2019-04-29T16:59:27.164Z,15.41
2019-04-29T17:01:59.097Z,15.32
2019-04-29T17:04:30.703Z,15.37
2019-04-29T17:07:12.222Z,15.30
2019-04-29T17:10:07.277Z,15.29
2019-04-29T17:12:46.826Z,15.42
2019-04-29T17:15:25.256Z,15.40
2019-04-29T17:17:52.746Z,15.35
2019-04-29T17:20:24.896Z,15.40
2019-04-29T17:22:57.016Z,15.34
2019-04-29T17:25:29.046Z,15.26
2019-04-29T17:28:24.135Z,15.17
2019-04-29T17:31:12.528Z,15.07
2019-04-29T17:33:56.228Z,15.12
2019-04-29T17:36:28.526Z,15.05
2019-04-29T17:39:00.526Z,15.00
2019-04-29T17:41:34.036Z,14.98
2019-04-29T17:44:22.804Z,14.96
2019-04-29T17:47:06.982Z,14.98
2019-04-29T17:49:57.319Z,14.96
2019-04-29T17:52:30.389Z,14.92
2019-04-29T17:55:15.220Z,14.86
2019-04-29T17:58:08.446Z,14.81
2019-04-29T18:00:59.893Z,14.75
2019-04-29T18:03:56.907Z,14.66
2019-04-29T18:06:35.567Z,14.58
2019-04-29T18:09:30.168Z,14.52
2019-04-29T18:12:06.028Z,14.46
2019-04-29T18:14:41.793Z,14.42
2019-04-29T18:17:24.150Z,14.44
2019-04-29T18:20:00.227Z,14.43
2019-04-29T18:22:51.376Z,14.39
2019-04-29T18:25:32.376Z,14.32
2019-04-29T18:28:05.224Z,14.24
2019-04-29T18:30:38.620Z,14.22
2019-04-29T18:33:10.757Z,14.23
2019-04-29T18:35:42.745Z,14.22
2019-04-29T18:38:14.846Z,14.17
2019-04-29T18:40:46.796Z,14.18
2019-04-29T18:43:23.133Z,14.20
2019-04-29T18:45:56.798Z,14.24
2019-04-29T18:48:27.279Z,14.34
2019-04-29T18:50:59.746Z,14.41
2019-04-29T18:53:31.686Z,14.39
2019-04-29T18:56:05.243Z,14.33
2019-04-29T18:58:37.374Z,14.30
2019-04-29T19:01:09.426Z,14.32
2019-04-29T19:03:48.526Z,14.33
2019-04-29T19:06:21.026Z,14.37
2019-04-29T19:08:54.891Z,14.35
2019-04-29T19:11:32.461Z,14.30
2019-04-29T19:14:05.150Z,14.25
2019-04-29T19:16:39.278Z,14.18
2019-04-29T19:19:11.906Z,14.11
2019-04-29T19:21:45.505Z,14.08
2019-04-29T19:24:18.186Z,14.07
2019-04-29T19:26:55.674Z,14.08
2019-04-29T19:29:24.377Z,14.06
2019-04-29T19:31:56.776Z,13.96
2019-04-29T19:34:40.012Z,13.88
2019-04-29T19:37:02.965Z,13.86
2019-04-29T19:39:35.157Z,13.82
2019-04-29T19:42:07.111Z,13.78
2019-04-29T19:44:39.174Z,13.72
2019-04-29T19:47:15.282Z,13.64
2019-04-29T19:49:45.963Z,13.62
2019-04-29T19:52:28.011Z,13.58
2019-04-29T19:54:52.317Z,13.56
2019-04-29T19:57:24.973Z,13.52
2019-04-29T19:59:57.709Z,13.47
2019-04-29T20:02:30.710Z,13.43
2019-04-29T20:05:10.099Z,13.39
2019-04-29T20:07:44.490Z,13.39
2019-04-29T20:10:17.650Z,13.34
2019-04-29T20:12:53.324Z,13.32
2019-04-29T20:15:25.786Z,13.31
2019-04-29T20:18:35.673Z,13.28
2019-04-29T20:21:21.422Z,13.27
2019-04-29T20:23:52.646Z,13.25
2019-04-29T20:26:28.956Z,13.26
2019-04-29T20:28:56.820Z,13.23
2019-04-29T20:31:30.396Z,13.18
2019-04-29T20:34:03.003Z,13.12
2019-04-29T20:36:41.738Z,13.09
2019-04-29T20:39:15.154Z,13.04
2019-04-29T20:41:47.105Z,12.95
2019-04-29T20:44:17.312Z,12.90
2019-04-29T20:47:13.096Z,12.84
2019-04-29T20:49:23.425Z,12.77
2019-04-29T20:51:59.087Z,12.66
2019-04-29T20:54:32.202Z,12.58
2019-04-29T20:57:06.070Z,12.57
2019-04-29T20:59:42.000Z,12.58
2019-04-29T21:02:13.046Z,12.59
2019-04-29T21:04:47.397Z,12.53
2019-04-29T21:07:23.929Z,12.51
2019-04-29T21:09:53.406Z,12.47
2019-04-29T21:12:38.047Z,12.46
2019-04-29T21:15:14.759Z,12.40
2019-04-29T21:17:46.246Z,12.37
2019-04-29T21:20:17.145Z,12.33
2019-04-29T21:22:52.558Z,12.25
2019-04-29T21:25:24.747Z,12.25
2019-04-29T21:28:00.735Z,12.24
2019-04-29T21:30:35.444Z,12.23
2019-04-29T21:33:08.258Z,12.24
2019-04-29T21:35:45.454Z,12.25
2019-04-29T21:38:39.369Z,12.24
2019-04-29T21:41:19.546Z,12.23
2019-04-29T21:43:53.583Z,12.29
2019-04-29T21:46:25.619Z,12.35
2019-04-29T21:48:57.296Z,12.36
2019-04-29T21:51:29.346Z,12.37
2019-04-29T21:54:01.395Z,12.33
2019-04-29T21:56:33.426Z,12.32
2019-04-29T21:59:09.247Z,12.32
2019-04-29T22:01:39.626Z,12.35
2019-04-29T22:04:11.739Z,12.37
2019-04-29T22:06:45.895Z,12.34
2019-04-29T22:09:18.756Z,12.34
2019-04-29T22:11:50.847Z,12.30
2019-04-29T22:14:24.651Z,12.28
2019-04-29T22:16:57.097Z,12.26
2019-04-29T22:19:29.236Z,12.27
2019-04-29T22:22:01.594Z,12.28
2019-04-29T22:24:35.928Z,12.27
2019-04-29T22:27:08.369Z,12.33
2019-04-29T22:29:40.486Z,12.33
2019-04-29T22:32:14.697Z,12.28
2019-04-29T22:34:45.242Z,12.15
2019-04-29T22:37:17.426Z,12.09
2019-04-29T22:39:48.445Z,11.97
2019-04-29T22:42:39.106Z,11.84
2019-04-29T22:45:12.159Z,11.78
2019-04-29T22:47:43.095Z,11.75
2019-04-29T22:50:15.207Z,11.63
2019-04-29T22:52:47.346Z,11.62
2019-04-29T22:55:18.315Z,11.60
2019-04-29T22:57:50.429Z,11.62
2019-04-29T23:00:26.240Z,11.65
2019-04-29T23:03:02.371Z,11.77
2019-04-29T23:05:32.947Z,11.87
2019-04-29T23:08:05.261Z,11.93
2019-04-29T23:10:36.195Z,11.89
2019-04-29T23:13:07.986Z,11.84
2019-04-29T23:15:40.036Z,11.83
2019-04-29T23:18:23.878Z,11.81
2019-04-29T23:21:07.306Z,11.79
2019-04-29T23:23:45.392Z,11.75
2019-04-29T23:26:18.427Z,11.68
2019-04-29T23:28:50.390Z,11.63
2019-04-29T23:31:22.632Z,11.57
2019-04-29T23:33:56.530Z,11.51
2019-04-29T23:36:28.766Z,11.49
2019-04-29T23:39:00.686Z,11.42
2019-04-29T23:41:36.565Z,11.38
2019-04-29T23:44:09.034Z,11.33
2019-04-29T23:46:41.156Z,11.30
2019-04-29T23:49:15.299Z,11.34
2019-04-29T23:51:46.625Z,11.34
2019-04-29T23:54:18.887Z,11.32
2019-04-29T23:57:16.331Z,11.30
